sensor_id;sensor_type;location;lat;lon;timestamp;P1;durP1;ratioP1;P2;durP2;ratioP2
21769;SDS011;11046;49.558;8.674;2023-08-21T00:01:47;12.48;;;6.43;;
21769;SDS011;11046;49.558;8.674;2023-08-21T00:04:48;11.48;;;6.60;;
21769;SDS011;11046;49.558;8.674;2023-08-21T00:07:48;10.20;;;6.35;;
21769;SDS011;11046;49.558;8.674;2023-08-21T00:10:51;8.68;;;6.28;;
21769;SDS011;11046;49.558;8.674;2023-08-21T00:13:51;11.82;;;6.68;;
21769;SDS011;11046;49.558;8.674;2023-08-21T00:16:52;9.63;;;6.60;;
21769;SDS011;11046;49.558;8.674;2023-08-21T00:19:52;17.25;;;7.18;;
21769;SDS011;11046;49.558;8.674;2023-08-21T00:22:53;13.18;;;7.15;;
21769;SDS011;11046;49.558;8.674;2023-08-21T00:25:53;10.50;;;6.60;;
21769;SDS011;11046;49.558;8.674;2023-08-21T00:28:54;10.02;;;6.22;;
21769;SDS011;11046;49.558;8.674;2023-08-21T00:31:55;10.88;;;6.32;;
21769;SDS011;11046;49.558;8.674;2023-08-21T00:34:56;10.88;;;6.63;;
21769;SDS011;11046;49.558;8.674;2023-08-21T00:37:56;8.63;;;6.57;;
21769;SDS011;11046;49.558;8.674;2023-08-21T00:40:57;11.88;;;6.32;;
21769;SDS011;11046;49.558;8.674;2023-08-21T00:43:58;12.95;;;6.80;;
21769;SDS011;11046;49.558;8.674;2023-08-21T00:46:59;8.52;;;6.40;;
21769;SDS011;11046;49.558;8.674;2023-08-21T00:50:00;12.75;;;6.43;;
21769;SDS011;11046;49.558;8.674;2023-08-21T00:53:01;11.57;;;7.15;;
21769;SDS011;11046;49.558;8.674;2023-08-21T00:56:03;13.80;;;6.75;;
21769;SDS011;11046;49.558;8.674;2023-08-21T00:59:04;17.52;;;7.25;;
21769;SDS011;11046;49.558;8.674;2023-08-21T01:02:04;9.65;;;6.28;;
21769;SDS011;11046;49.558;8.674;2023-08-21T01:05:05;13.55;;;6.80;;
21769;SDS011;11046;49.558;8.674;2023-08-21T01:08:14;13.18;;;6.93;;
21769;SDS011;11046;49.558;8.674;2023-08-21T01:11:21;9.90;;;6.88;;
21769;SDS011;11046;49.558;8.674;2023-08-21T01:17:45;17.88;;;6.80;;
21769;SDS011;11046;49.558;8.674;2023-08-21T01:20:47;12.80;;;6.78;;
21769;SDS011;11046;49.558;8.674;2023-08-21T01:23:48;9.43;;;7.03;;
21769;SDS011;11046;49.558;8.674;2023-08-21T01:26:48;8.95;;;6.82;;
21769;SDS011;11046;49.558;8.674;2023-08-21T01:29:49;11.55;;;6.43;;
21769;SDS011;11046;49.558;8.674;2023-08-21T01:36:02;13.50;;;7.00;;
21769;SDS011;11046;49.558;8.674;2023-08-21T01:42:25;14.50;;;6.43;;
21769;SDS011;11046;49.558;8.674;2023-08-21T01:45:25;12.38;;;6.80;;
21769;SDS011;11046;49.558;8.674;2023-08-21T01:48:26;9.60;;;6.60;;
21769;SDS011;11046;49.558;8.674;2023-08-21T01:51:27;10.15;;;7.05;;
21769;SDS011;11046;49.558;8.674;2023-08-21T01:54:27;12.02;;;6.88;;
21769;SDS011;11046;49.558;8.674;2023-08-21T01:57:28;12.57;;;6.85;;
21769;SDS011;11046;49.558;8.674;2023-08-21T02:00:29;14.00;;;6.93;;
21769;SDS011;11046;49.558;8.674;2023-08-21T02:03:30;9.60;;;6.60;;
21769;SDS011;11046;49.558;8.674;2023-08-21T02:06:30;12.35;;;7.22;;
21769;SDS011;11046;49.558;8.674;2023-08-21T02:09:31;11.13;;;7.15;;
21769;SDS011;11046;49.558;8.674;2023-08-21T02:12:32;10.02;;;6.80;;
21769;SDS011;11046;49.558;8.674;2023-08-21T02:15:32;16.35;;;7.00;;
21769;SDS011;11046;49.558;8.674;2023-08-21T02:18:33;11.77;;;7.05;;
21769;SDS011;11046;49.558;8.674;2023-08-21T02:21:34;15.95;;;7.60;;
21769;SDS011;11046;49.558;8.674;2023-08-21T02:24:36;15.93;;;7.35;;
21769;SDS011;11046;49.558;8.674;2023-08-21T02:27:38;13.70;;;7.38;;
21769;SDS011;11046;49.558;8.674;2023-08-21T02:30:41;17.42;;;6.82;;
21769;SDS011;11046;49.558;8.674;2023-08-21T02:33:42;10.30;;;6.43;;
21769;SDS011;11046;49.558;8.674;2023-08-21T02:36:43;16.00;;;7.10;;
21769;SDS011;11046;49.558;8.674;2023-08-21T02:39:43;7.95;;;6.53;;
21769;SDS011;11046;49.558;8.674;2023-08-21T02:42:44;14.88;;;7.60;;
21769;SDS011;11046;49.558;8.674;2023-08-21T02:45:44;10.20;;;6.38;;
21769;SDS011;11046;49.558;8.674;2023-08-21T02:48:45;11.63;;;6.70;;
21769;SDS011;11046;49.558;8.674;2023-08-21T02:51:46;10.40;;;6.30;;
21769;SDS011;11046;49.558;8.674;2023-08-21T02:54:46;16.30;;;7.18;;
21769;SDS011;11046;49.558;8.674;2023-08-21T02:57:47;13.48;;;6.72;;
21769;SDS011;11046;49.558;8.674;2023-08-21T03:00:48;12.00;;;7.38;;
21769;SDS011;11046;49.558;8.674;2023-08-21T03:03:49;11.45;;;7.07;;
21769;SDS011;11046;49.558;8.674;2023-08-21T03:06:50;14.68;;;6.88;;
21769;SDS011;11046;49.558;8.674;2023-08-21T03:09:50;13.82;;;6.80;;
21769;SDS011;11046;49.558;8.674;2023-08-21T03:12:51;16.13;;;6.85;;
21769;SDS011;11046;49.558;8.674;2023-08-21T03:15:53;13.80;;;6.53;;
21769;SDS011;11046;49.558;8.674;2023-08-21T03:18:55;17.15;;;7.25;;
21769;SDS011;11046;49.558;8.674;2023-08-21T03:21:58;13.32;;;7.13;;
21769;SDS011;11046;49.558;8.674;2023-08-21T03:24:59;9.88;;;7.18;;
21769;SDS011;11046;49.558;8.674;2023-08-21T03:28:00;12.15;;;7.30;;
21769;SDS011;11046;49.558;8.674;2023-08-21T03:31:01;10.38;;;7.03;;
21769;SDS011;11046;49.558;8.674;2023-08-21T03:34:03;15.48;;;7.43;;
21769;SDS011;11046;49.558;8.674;2023-08-21T03:37:04;12.30;;;7.47;;
21769;SDS011;11046;49.558;8.674;2023-08-21T03:40:06;14.27;;;7.22;;
21769;SDS011;11046;49.558;8.674;2023-08-21T03:43:08;11.85;;;6.70;;
21769;SDS011;11046;49.558;8.674;2023-08-21T03:46:08;21.25;;;7.28;;
21769;SDS011;11046;49.558;8.674;2023-08-21T03:49:09;14.85;;;7.00;;
21769;SDS011;11046;49.558;8.674;2023-08-21T03:52:09;13.55;;;7.72;;
21769;SDS011;11046;49.558;8.674;2023-08-21T03:55:10;12.95;;;6.82;;
21769;SDS011;11046;49.558;8.674;2023-08-21T03:58:10;13.13;;;6.75;;
21769;SDS011;11046;49.558;8.674;2023-08-21T04:01:12;11.70;;;7.35;;
21769;SDS011;11046;49.558;8.674;2023-08-21T04:04:12;13.20;;;7.22;;
21769;SDS011;11046;49.558;8.674;2023-08-21T04:07:13;10.65;;;6.90;;
21769;SDS011;11046;49.558;8.674;2023-08-21T04:10:13;8.70;;;6.72;;
21769;SDS011;11046;49.558;8.674;2023-08-21T04:13:14;12.02;;;7.30;;
21769;SDS011;11046;49.558;8.674;2023-08-21T04:16:15;12.07;;;7.38;;
21769;SDS011;11046;49.558;8.674;2023-08-21T04:19:17;12.63;;;7.15;;
21769;SDS011;11046;49.558;8.674;2023-08-21T04:22:18;10.73;;;7.50;;
21769;SDS011;11046;49.558;8.674;2023-08-21T04:25:19;13.00;;;7.20;;
21769;SDS011;11046;49.558;8.674;2023-08-21T04:28:19;10.13;;;6.72;;
21769;SDS011;11046;49.558;8.674;2023-08-21T04:31:20;9.85;;;6.38;;
21769;SDS011;11046;49.558;8.674;2023-08-21T04:34:22;15.13;;;7.35;;
21769;SDS011;11046;49.558;8.674;2023-08-21T04:37:24;13.60;;;7.40;;
21769;SDS011;11046;49.558;8.674;2023-08-21T04:40:25;12.93;;;7.38;;
21769;SDS011;11046;49.558;8.674;2023-08-21T04:43:26;11.18;;;6.93;;
21769;SDS011;11046;49.558;8.674;2023-08-21T04:46:28;15.35;;;7.65;;
21769;SDS011;11046;49.558;8.674;2023-08-21T04:49:29;12.45;;;7.18;;
21769;SDS011;11046;49.558;8.674;2023-08-21T04:52:30;13.15;;;7.50;;
21769;SDS011;11046;49.558;8.674;2023-08-21T04:55:30;12.25;;;7.35;;
21769;SDS011;11046;49.558;8.674;2023-08-21T04:58:31;14.70;;;7.25;;
21769;SDS011;11046;49.558;8.674;2023-08-21T05:01:32;14.68;;;7.43;;
21769;SDS011;11046;49.558;8.674;2023-08-21T05:04:36;15.57;;;7.70;;
21769;SDS011;11046;49.558;8.674;2023-08-21T05:07:37;18.95;;;7.93;;
21769;SDS011;11046;49.558;8.674;2023-08-21T05:10:38;15.32;;;7.88;;
21769;SDS011;11046;49.558;8.674;2023-08-21T05:13:39;14.88;;;7.55;;
21769;SDS011;11046;49.558;8.674;2023-08-21T05:16:43;15.30;;;7.43;;
21769;SDS011;11046;49.558;8.674;2023-08-21T05:19:44;10.65;;;7.00;;
21769;SDS011;11046;49.558;8.674;2023-08-21T05:22:46;10.60;;;6.72;;
21769;SDS011;11046;49.558;8.674;2023-08-21T05:25:47;15.68;;;7.35;;
21769;SDS011;11046;49.558;8.674;2023-08-21T05:28:49;10.50;;;7.45;;
21769;SDS011;11046;49.558;8.674;2023-08-21T05:31:50;12.77;;;7.28;;
21769;SDS011;11046;49.558;8.674;2023-08-21T05:34:50;10.77;;;7.03;;
21769;SDS011;11046;49.558;8.674;2023-08-21T05:37:51;16.50;;;7.18;;
21769;SDS011;11046;49.558;8.674;2023-08-21T05:40:52;12.10;;;6.72;;
21769;SDS011;11046;49.558;8.674;2023-08-21T05:43:53;15.07;;;7.30;;
21769;SDS011;11046;49.558;8.674;2023-08-21T05:46:57;14.40;;;7.18;;
21769;SDS011;11046;49.558;8.674;2023-08-21T05:49:58;17.92;;;7.07;;
21769;SDS011;11046;49.558;8.674;2023-08-21T05:52:59;14.77;;;7.07;;
21769;SDS011;11046;49.558;8.674;2023-08-21T05:56:01;11.95;;;7.45;;
21769;SDS011;11046;49.558;8.674;2023-08-21T05:59:02;11.55;;;6.70;;
21769;SDS011;11046;49.558;8.674;2023-08-21T06:02:03;10.40;;;6.55;;
21769;SDS011;11046;49.558;8.674;2023-08-21T06:05:05;16.17;;;7.40;;
21769;SDS011;11046;49.558;8.674;2023-08-21T06:08:06;11.52;;;6.90;;
21769;SDS011;11046;49.558;8.674;2023-08-21T06:11:09;14.20;;;7.32;;
21769;SDS011;11046;49.558;8.674;2023-08-21T06:14:09;13.40;;;7.60;;
21769;SDS011;11046;49.558;8.674;2023-08-21T06:17:10;15.18;;;8.52;;
21769;SDS011;11046;49.558;8.674;2023-08-21T06:20:11;17.42;;;8.65;;
21769;SDS011;11046;49.558;8.674;2023-08-21T06:23:13;11.60;;;8.27;;
21769;SDS011;11046;49.558;8.674;2023-08-21T06:26:14;13.40;;;8.13;;
21769;SDS011;11046;49.558;8.674;2023-08-21T06:29:15;13.48;;;7.78;;
21769;SDS011;11046;49.558;8.674;2023-08-21T06:32:15;14.85;;;8.88;;
21769;SDS011;11046;49.558;8.674;2023-08-21T06:35:17;18.48;;;9.18;;
21769;SDS011;11046;49.558;8.674;2023-08-21T06:38:18;14.20;;;8.52;;
21769;SDS011;11046;49.558;8.674;2023-08-21T06:41:19;16.55;;;8.88;;
21769;SDS011;11046;49.558;8.674;2023-08-21T06:44:20;13.38;;;9.00;;
21769;SDS011;11046;49.558;8.674;2023-08-21T06:47:20;17.13;;;9.57;;
21769;SDS011;11046;49.558;8.674;2023-08-21T06:50:21;15.48;;;8.98;;
21769;SDS011;11046;49.558;8.674;2023-08-21T06:53:22;12.23;;;7.85;;
21769;SDS011;11046;49.558;8.674;2023-08-21T06:56:22;10.63;;;8.07;;
21769;SDS011;11046;49.558;8.674;2023-08-21T06:59:23;11.30;;;8.35;;
21769;SDS011;11046;49.558;8.674;2023-08-21T07:02:24;14.52;;;7.65;;
21769;SDS011;11046;49.558;8.674;2023-08-21T07:05:24;15.55;;;7.88;;
21769;SDS011;11046;49.558;8.674;2023-08-21T07:08:25;12.27;;;7.57;;
21769;SDS011;11046;49.558;8.674;2023-08-21T07:11:26;12.77;;;7.70;;
21769;SDS011;11046;49.558;8.674;2023-08-21T07:14:27;14.40;;;7.80;;
21769;SDS011;11046;49.558;8.674;2023-08-21T07:17:27;13.30;;;7.38;;
21769;SDS011;11046;49.558;8.674;2023-08-21T07:20:28;11.75;;;7.85;;
21769;SDS011;11046;49.558;8.674;2023-08-21T07:23:29;11.93;;;7.30;;
21769;SDS011;11046;49.558;8.674;2023-08-21T07:26:43;11.65;;;7.40;;
21769;SDS011;11046;49.558;8.674;2023-08-21T07:29:44;13.18;;;7.20;;
21769;SDS011;11046;49.558;8.674;2023-08-21T07:32:45;13.90;;;6.88;;
21769;SDS011;11046;49.558;8.674;2023-08-21T07:35:46;10.02;;;7.47;;
21769;SDS011;11046;49.558;8.674;2023-08-21T07:38:46;8.43;;;6.40;;
21769;SDS011;11046;49.558;8.674;2023-08-21T07:41:47;15.27;;;7.38;;
21769;SDS011;11046;49.558;8.674;2023-08-21T07:44:48;9.77;;;7.13;;
21769;SDS011;11046;49.558;8.674;2023-08-21T07:47:48;10.68;;;6.88;;
21769;SDS011;11046;49.558;8.674;2023-08-21T07:50:52;11.68;;;6.60;;
21769;SDS011;11046;49.558;8.674;2023-08-21T07:53:53;12.20;;;7.20;;
21769;SDS011;11046;49.558;8.674;2023-08-21T07:56:53;9.73;;;7.40;;
21769;SDS011;11046;49.558;8.674;2023-08-21T07:59:54;11.40;;;7.18;;
21769;SDS011;11046;49.558;8.674;2023-08-21T08:02:55;10.20;;;6.57;;
21769;SDS011;11046;49.558;8.674;2023-08-21T08:05:56;12.30;;;6.53;;
21769;SDS011;11046;49.558;8.674;2023-08-21T08:08:57;12.70;;;6.78;;
21769;SDS011;11046;49.558;8.674;2023-08-21T08:11:57;13.52;;;6.82;;
21769;SDS011;11046;49.558;8.674;2023-08-21T08:14:58;13.77;;;7.85;;
21769;SDS011;11046;49.558;8.674;2023-08-21T08:17:59;14.68;;;7.32;;
21769;SDS011;11046;49.558;8.674;2023-08-21T08:21:00;8.60;;;6.65;;
21769;SDS011;11046;49.558;8.674;2023-08-21T08:24:00;12.02;;;6.45;;
21769;SDS011;11046;49.558;8.674;2023-08-21T08:27:01;14.65;;;7.07;;
21769;SDS011;11046;49.558;8.674;2023-08-21T08:30:02;12.10;;;6.72;;
21769;SDS011;11046;49.558;8.674;2023-08-21T08:33:03;9.10;;;6.40;;
21769;SDS011;11046;49.558;8.674;2023-08-21T08:36:04;12.07;;;6.68;;
21769;SDS011;11046;49.558;8.674;2023-08-21T08:39:05;9.15;;;6.63;;
21769;SDS011;11046;49.558;8.674;2023-08-21T08:42:06;9.07;;;6.38;;
21769;SDS011;11046;49.558;8.674;2023-08-21T08:45:08;12.60;;;7.15;;
21769;SDS011;11046;49.558;8.674;2023-08-21T08:48:08;9.77;;;6.85;;
21769;SDS011;11046;49.558;8.674;2023-08-21T08:51:10;9.10;;;6.45;;
21769;SDS011;11046;49.558;8.674;2023-08-21T08:54:13;8.85;;;6.55;;
21769;SDS011;11046;49.558;8.674;2023-08-21T08:57:16;12.40;;;7.05;;
21769;SDS011;11046;49.558;8.674;2023-08-21T09:00:16;8.82;;;7.00;;
21769;SDS011;11046;49.558;8.674;2023-08-21T09:03:17;11.75;;;7.13;;
21769;SDS011;11046;49.558;8.674;2023-08-21T09:06:18;10.88;;;7.15;;
21769;SDS011;11046;49.558;8.674;2023-08-21T09:09:18;11.60;;;7.18;;
21769;SDS011;11046;49.558;8.674;2023-08-21T09:12:19;9.13;;;6.47;;
21769;SDS011;11046;49.558;8.674;2023-08-21T09:15:21;9.70;;;7.07;;
21769;SDS011;11046;49.558;8.674;2023-08-21T09:18:28;12.05;;;6.43;;
21769;SDS011;11046;49.558;8.674;2023-08-21T09:21:29;8.85;;;6.35;;
21769;SDS011;11046;49.558;8.674;2023-08-21T09:24:29;10.45;;;6.55;;
21769;SDS011;11046;49.558;8.674;2023-08-21T09:27:31;8.13;;;5.78;;
21769;SDS011;11046;49.558;8.674;2023-08-21T09:30:53;11.85;;;6.25;;
21769;SDS011;11046;49.558;8.674;2023-08-21T09:33:55;10.10;;;5.82;;
21769;SDS011;11046;49.558;8.674;2023-08-21T09:37:00;9.15;;;5.93;;
21769;SDS011;11046;49.558;8.674;2023-08-21T09:40:04;9.50;;;5.88;;
21769;SDS011;11046;49.558;8.674;2023-08-21T09:43:11;7.93;;;5.80;;
21769;SDS011;11046;49.558;8.674;2023-08-21T09:46:14;7.50;;;5.40;;
21769;SDS011;11046;49.558;8.674;2023-08-21T09:49:16;13.05;;;5.45;;
21769;SDS011;11046;49.558;8.674;2023-08-21T09:52:19;10.10;;;5.35;;
21769;SDS011;11046;49.558;8.674;2023-08-21T09:55:20;9.40;;;5.00;;
21769;SDS011;11046;49.558;8.674;2023-08-21T09:58:22;8.60;;;4.50;;
21769;SDS011;11046;49.558;8.674;2023-08-21T10:01:24;10.57;;;4.80;;
21769;SDS011;11046;49.558;8.674;2023-08-21T10:04:25;13.95;;;4.72;;
21769;SDS011;11046;49.558;8.674;2023-08-21T10:07:27;6.00;;;4.90;;
21769;SDS011;11046;49.558;8.674;2023-08-21T10:10:32;6.10;;;4.80;;
21769;SDS011;11046;49.558;8.674;2023-08-21T10:13:35;8.20;;;4.30;;
21769;SDS011;11046;49.558;8.674;2023-08-21T10:16:38;6.35;;;4.50;;
21769;SDS011;11046;49.558;8.674;2023-08-21T10:19:38;9.77;;;4.50;;
21769;SDS011;11046;49.558;8.674;2023-08-21T10:25:44;8.77;;;4.20;;
21769;SDS011;11046;49.558;8.674;2023-08-21T10:28:54;8.13;;;4.18;;
21769;SDS011;11046;49.558;8.674;2023-08-21T10:31:59;6.43;;;4.40;;
21769;SDS011;11046;49.558;8.674;2023-08-21T10:35:04;4.38;;;3.88;;
21769;SDS011;11046;49.558;8.674;2023-08-21T10:38:23;9.32;;;4.10;;
21769;SDS011;11046;49.558;8.674;2023-08-21T10:41:27;7.15;;;4.32;;
21769;SDS011;11046;49.558;8.674;2023-08-21T10:47:58;7.65;;;3.92;;
21769;SDS011;11046;49.558;8.674;2023-08-21T10:51:04;6.75;;;4.35;;
21769;SDS011;11046;49.558;8.674;2023-08-21T10:54:15;5.00;;;4.28;;
21769;SDS011;11046;49.558;8.674;2023-08-21T10:57:16;7.97;;;3.85;;
21769;SDS011;11046;49.558;8.674;2023-08-21T11:00:18;6.18;;;3.63;;
21769;SDS011;11046;49.558;8.674;2023-08-21T11:03:19;5.90;;;4.45;;
21769;SDS011;11046;49.558;8.674;2023-08-21T11:06:20;6.57;;;4.00;;
21769;SDS011;11046;49.558;8.674;2023-08-21T11:09:21;7.93;;;3.30;;
21769;SDS011;11046;49.558;8.674;2023-08-21T11:12:22;2.92;;;2.20;;
21769;SDS011;11046;49.558;8.674;2023-08-21T11:15:24;7.07;;;3.15;;
21769;SDS011;11046;49.558;8.674;2023-08-21T11:18:29;6.70;;;3.33;;
21769;SDS011;11046;49.558;8.674;2023-08-21T11:21:38;7.35;;;3.25;;
21769;SDS011;11046;49.558;8.674;2023-08-21T11:24:48;5.93;;;3.05;;
21769;SDS011;11046;49.558;8.674;2023-08-21T11:27:52;3.72;;;2.70;;
21769;SDS011;11046;49.558;8.674;2023-08-21T11:30:54;6.47;;;2.70;;
21769;SDS011;11046;49.558;8.674;2023-08-21T11:33:55;3.97;;;2.50;;
21769;SDS011;11046;49.558;8.674;2023-08-21T11:36:56;4.95;;;2.08;;
21769;SDS011;11046;49.558;8.674;2023-08-21T11:39:57;4.40;;;2.60;;
21769;SDS011;11046;49.558;8.674;2023-08-21T11:43:02;8.88;;;3.60;;
21769;SDS011;11046;49.558;8.674;2023-08-21T11:46:09;5.95;;;3.50;;
21769;SDS011;11046;49.558;8.674;2023-08-21T11:49:10;6.85;;;3.50;;
21769;SDS011;11046;49.558;8.674;2023-08-21T11:52:11;7.85;;;4.40;;
21769;SDS011;11046;49.558;8.674;2023-08-21T11:55:12;5.28;;;4.05;;
21769;SDS011;11046;49.558;8.674;2023-08-21T11:58:13;4.75;;;4.00;;
21769;SDS011;11046;49.558;8.674;2023-08-21T12:01:19;5.32;;;3.63;;
21769;SDS011;11046;49.558;8.674;2023-08-21T12:04:20;5.15;;;4.10;;
21769;SDS011;11046;49.558;8.674;2023-08-21T12:07:21;5.05;;;3.70;;
21769;SDS011;11046;49.558;8.674;2023-08-21T12:10:25;5.93;;;3.90;;
21769;SDS011;11046;49.558;8.674;2023-08-21T12:13:29;6.78;;;3.75;;
21769;SDS011;11046;49.558;8.674;2023-08-21T12:16:30;4.40;;;3.15;;
21769;SDS011;11046;49.558;8.674;2023-08-21T12:19:31;5.40;;;3.90;;
21769;SDS011;11046;49.558;8.674;2023-08-21T12:22:32;5.78;;;3.67;;
21769;SDS011;11046;49.558;8.674;2023-08-21T12:25:33;5.55;;;3.97;;
21769;SDS011;11046;49.558;8.674;2023-08-21T12:28:33;7.25;;;3.90;;
21769;SDS011;11046;49.558;8.674;2023-08-21T12:31:34;4.75;;;4.13;;
21769;SDS011;11046;49.558;8.674;2023-08-21T12:34:37;5.93;;;3.92;;
21769;SDS011;11046;49.558;8.674;2023-08-21T12:37:37;6.43;;;3.85;;
21769;SDS011;11046;49.558;8.674;2023-08-21T12:40:39;7.25;;;3.78;;
21769;SDS011;11046;49.558;8.674;2023-08-21T12:43:39;5.15;;;3.40;;
21769;SDS011;11046;49.558;8.674;2023-08-21T12:46:40;7.07;;;3.15;;
21769;SDS011;11046;49.558;8.674;2023-08-21T12:49:41;3.38;;;2.80;;
21769;SDS011;11046;49.558;8.674;2023-08-21T12:52:42;3.35;;;2.95;;
21769;SDS011;11046;49.558;8.674;2023-08-21T12:55:42;6.07;;;3.10;;
21769;SDS011;11046;49.558;8.674;2023-08-21T12:58:43;5.03;;;3.45;;
21769;SDS011;11046;49.558;8.674;2023-08-21T13:01:44;6.22;;;3.15;;
21769;SDS011;11046;49.558;8.674;2023-08-21T13:04:45;3.72;;;3.17;;
21769;SDS011;11046;49.558;8.674;2023-08-21T13:07:45;8.48;;;3.72;;
21769;SDS011;11046;49.558;8.674;2023-08-21T13:10:46;7.10;;;3.60;;
21769;SDS011;11046;49.558;8.674;2023-08-21T13:13:47;6.43;;;3.25;;
21769;SDS011;11046;49.558;8.674;2023-08-21T13:16:48;6.10;;;3.20;;
21769;SDS011;11046;49.558;8.674;2023-08-21T13:19:49;3.20;;;2.90;;
21769;SDS011;11046;49.558;8.674;2023-08-21T13:22:51;3.28;;;2.83;;
21769;SDS011;11046;49.558;8.674;2023-08-21T13:25:52;3.42;;;2.85;;
21769;SDS011;11046;49.558;8.674;2023-08-21T13:28:52;7.38;;;2.90;;
21769;SDS011;11046;49.558;8.674;2023-08-21T13:31:53;3.95;;;2.50;;
21769;SDS011;11046;49.558;8.674;2023-08-21T13:34:54;2.95;;;2.40;;
21769;SDS011;11046;49.558;8.674;2023-08-21T13:37:55;3.10;;;2.35;;
21769;SDS011;11046;49.558;8.674;2023-08-21T13:40:56;4.65;;;2.80;;
21769;SDS011;11046;49.558;8.674;2023-08-21T13:43:57;3.85;;;2.70;;
21769;SDS011;11046;49.558;8.674;2023-08-21T13:46:57;7.00;;;2.60;;
21769;SDS011;11046;49.558;8.674;2023-08-21T13:49:58;6.18;;;2.80;;
21769;SDS011;11046;49.558;8.674;2023-08-21T13:52:59;9.27;;;2.90;;
21769;SDS011;11046;49.558;8.674;2023-08-21T13:55:59;2.55;;;2.35;;
21769;SDS011;11046;49.558;8.674;2023-08-21T13:59:00;2.50;;;2.28;;
21769;SDS011;11046;49.558;8.674;2023-08-21T14:02:01;3.22;;;2.33;;
21769;SDS011;11046;49.558;8.674;2023-08-21T14:05:02;4.25;;;2.33;;
21769;SDS011;11046;49.558;8.674;2023-08-21T14:08:04;3.55;;;2.17;;
21769;SDS011;11046;49.558;8.674;2023-08-21T14:11:05;4.70;;;1.83;;
21769;SDS011;11046;49.558;8.674;2023-08-21T14:14:06;3.35;;;2.45;;
21769;SDS011;11046;49.558;8.674;2023-08-21T14:17:06;3.38;;;2.53;;
21769;SDS011;11046;49.558;8.674;2023-08-21T14:20:07;4.68;;;2.50;;
21769;SDS011;11046;49.558;8.674;2023-08-21T14:23:08;4.55;;;2.75;;
21769;SDS011;11046;49.558;8.674;2023-08-21T14:26:09;3.65;;;2.70;;
21769;SDS011;11046;49.558;8.674;2023-08-21T14:29:09;4.35;;;2.55;;
21769;SDS011;11046;49.558;8.674;2023-08-21T14:32:10;2.95;;;2.15;;
21769;SDS011;11046;49.558;8.674;2023-08-21T14:35:12;4.72;;;2.33;;
21769;SDS011;11046;49.558;8.674;2023-08-21T14:38:12;4.10;;;2.45;;
21769;SDS011;11046;49.558;8.674;2023-08-21T14:41:13;2.50;;;2.22;;
21769;SDS011;11046;49.558;8.674;2023-08-21T14:44:14;2.45;;;2.25;;
21769;SDS011;11046;49.558;8.674;2023-08-21T14:47:15;5.95;;;2.20;;
21769;SDS011;11046;49.558;8.674;2023-08-21T14:50:16;3.08;;;2.75;;
21769;SDS011;11046;49.558;8.674;2023-08-21T14:53:16;2.42;;;2.22;;
21769;SDS011;11046;49.558;8.674;2023-08-21T14:56:17;5.88;;;2.13;;
21769;SDS011;11046;49.558;8.674;2023-08-21T14:59:19;3.58;;;2.22;;
21769;SDS011;11046;49.558;8.674;2023-08-21T15:02:19;2.35;;;2.15;;
21769;SDS011;11046;49.558;8.674;2023-08-21T15:05:20;4.05;;;2.47;;
21769;SDS011;11046;49.558;8.674;2023-08-21T15:08:21;2.65;;;2.10;;
21769;SDS011;11046;49.558;8.674;2023-08-21T15:11:22;3.15;;;2.30;;
21769;SDS011;11046;49.558;8.674;2023-08-21T15:14:23;5.03;;;2.17;;
21769;SDS011;11046;49.558;8.674;2023-08-21T15:17:23;3.92;;;2.40;;
21769;SDS011;11046;49.558;8.674;2023-08-21T15:20:24;3.03;;;2.33;;
21769;SDS011;11046;49.558;8.674;2023-08-21T15:23:25;6.18;;;2.20;;
21769;SDS011;11046;49.558;8.674;2023-08-21T15:26:26;3.60;;;2.30;;
21769;SDS011;11046;49.558;8.674;2023-08-21T15:29:26;3.85;;;2.10;;
21769;SDS011;11046;49.558;8.674;2023-08-21T15:32:27;7.13;;;2.17;;
21769;SDS011;11046;49.558;8.674;2023-08-21T15:35:28;6.78;;;2.47;;
21769;SDS011;11046;49.558;8.674;2023-08-21T15:38:28;2.97;;;2.13;;
21769;SDS011;11046;49.558;8.674;2023-08-21T15:41:29;4.85;;;2.45;;
21769;SDS011;11046;49.558;8.674;2023-08-21T15:44:30;3.70;;;2.40;;
21769;SDS011;11046;49.558;8.674;2023-08-21T15:47:30;3.70;;;2.40;;
21769;SDS011;11046;49.558;8.674;2023-08-21T15:50:31;3.00;;;2.30;;
21769;SDS011;11046;49.558;8.674;2023-08-21T15:53:32;2.17;;;1.92;;
21769;SDS011;11046;49.558;8.674;2023-08-21T15:56:32;4.18;;;2.40;;
21769;SDS011;11046;49.558;8.674;2023-08-21T15:59:33;4.95;;;2.10;;
21769;SDS011;11046;49.558;8.674;2023-08-21T16:02:34;4.25;;;2.40;;
21769;SDS011;11046;49.558;8.674;2023-08-21T16:05:35;5.53;;;2.60;;
21769;SDS011;11046;49.558;8.674;2023-08-21T16:08:36;2.92;;;2.53;;
21769;SDS011;11046;49.558;8.674;2023-08-21T16:11:37;3.58;;;2.53;;
21769;SDS011;11046;49.558;8.674;2023-08-21T16:14:37;5.32;;;2.42;;
21769;SDS011;11046;49.558;8.674;2023-08-21T16:17:38;4.43;;;2.30;;
21769;SDS011;11046;49.558;8.674;2023-08-21T16:20:38;3.78;;;2.40;;
21769;SDS011;11046;49.558;8.674;2023-08-21T16:23:39;4.10;;;2.40;;
21769;SDS011;11046;49.558;8.674;2023-08-21T16:26:40;4.20;;;2.20;;
21769;SDS011;11046;49.558;8.674;2023-08-21T16:29:40;2.75;;;2.20;;
21769;SDS011;11046;49.558;8.674;2023-08-21T16:32:41;3.00;;;2.47;;
21769;SDS011;11046;49.558;8.674;2023-08-21T16:35:42;4.47;;;2.60;;
21769;SDS011;11046;49.558;8.674;2023-08-21T16:38:43;4.47;;;2.55;;
21769;SDS011;11046;49.558;8.674;2023-08-21T16:41:43;4.60;;;2.38;;
21769;SDS011;11046;49.558;8.674;2023-08-21T16:44:44;5.88;;;2.30;;
21769;SDS011;11046;49.558;8.674;2023-08-21T16:47:44;6.20;;;2.60;;
21769;SDS011;11046;49.558;8.674;2023-08-21T16:50:49;4.35;;;2.60;;
21769;SDS011;11046;49.558;8.674;2023-08-21T16:53:50;3.05;;;2.40;;
21769;SDS011;11046;49.558;8.674;2023-08-21T16:56:50;3.30;;;2.47;;
21769;SDS011;11046;49.558;8.674;2023-08-21T16:59:51;5.50;;;2.30;;
21769;SDS011;11046;49.558;8.674;2023-08-21T17:02:52;2.78;;;2.20;;
21769;SDS011;11046;49.558;8.674;2023-08-21T17:05:53;5.75;;;2.45;;
21769;SDS011;11046;49.558;8.674;2023-08-21T17:08:53;5.20;;;2.60;;
21769;SDS011;11046;49.558;8.674;2023-08-21T17:11:54;3.80;;;2.85;;
21769;SDS011;11046;49.558;8.674;2023-08-21T17:14:55;7.93;;;3.05;;
21769;SDS011;11046;49.558;8.674;2023-08-21T17:17:56;6.05;;;2.38;;
21769;SDS011;11046;49.558;8.674;2023-08-21T17:20:57;5.22;;;2.22;;
21769;SDS011;11046;49.558;8.674;2023-08-21T17:23:58;7.53;;;2.75;;
21769;SDS011;11046;49.558;8.674;2023-08-21T17:26:58;6.97;;;2.80;;
21769;SDS011;11046;49.558;8.674;2023-08-21T17:29:59;5.63;;;2.75;;
21769;SDS011;11046;49.558;8.674;2023-08-21T17:33:00;4.38;;;2.10;;
21769;SDS011;11046;49.558;8.674;2023-08-21T17:36:00;3.67;;;2.28;;
21769;SDS011;11046;49.558;8.674;2023-08-21T17:39:01;5.25;;;2.55;;
21769;SDS011;11046;49.558;8.674;2023-08-21T17:42:02;6.07;;;2.25;;
21769;SDS011;11046;49.558;8.674;2023-08-21T17:45:03;5.22;;;2.45;;
21769;SDS011;11046;49.558;8.674;2023-08-21T17:48:04;4.80;;;2.95;;
21769;SDS011;11046;49.558;8.674;2023-08-21T17:51:05;4.82;;;2.35;;
21769;SDS011;11046;49.558;8.674;2023-08-21T17:54:06;6.85;;;2.33;;
21769;SDS011;11046;49.558;8.674;2023-08-21T17:57:07;5.53;;;2.55;;
21769;SDS011;11046;49.558;8.674;2023-08-21T18:00:07;4.70;;;2.70;;
21769;SDS011;11046;49.558;8.674;2023-08-21T18:03:09;5.97;;;2.80;;
21769;SDS011;11046;49.558;8.674;2023-08-21T18:06:10;7.68;;;3.80;;
21769;SDS011;11046;49.558;8.674;2023-08-21T18:09:11;6.35;;;3.70;;
21769;SDS011;11046;49.558;8.674;2023-08-21T18:12:12;6.45;;;3.00;;
21769;SDS011;11046;49.558;8.674;2023-08-21T18:15:13;7.97;;;2.75;;
21769;SDS011;11046;49.558;8.674;2023-08-21T18:18:13;3.45;;;2.70;;
21769;SDS011;11046;49.558;8.674;2023-08-21T18:21:14;4.47;;;2.80;;